Time;durP1;ratioP1;P1;durP2;ratioP2;P2;SDS_P1;SDS_P2;PMS_P1;PMS_P2;Temp;Humidity;BMP_temperature;BMP_pressure;BME280_temperature;BME280_humidity;BME280_pressure;Samples;Min_cycle;Max_cycle;Signal;HPM_P1;HPM_P2
2021/07/08 00:01:21;;;;;;;3.58;1.70;;;;;;;;;;5028032;28;20204;-48
2021/07/08 00:03:47;;;;;;;3.78;1.63;;;;;;;;;;5033862;28;20429;-48
2021/07/08 00:06:13;;;;;;;3.25;1.15;;;;;;;;;;5034406;28;20171;-48
2021/07/08 00:08:39;;;;;;;2.33;1.45;;;;;;;;;;5033797;28;20417;-48
2021/07/08 00:11:05;;;;;;;1.88;1.33;;;;;;;;;;5034379;28;20586;-48
2021/07/08 00:13:31;;;;;;;3.63;1.42;;;;;;;;;;5034808;28;20243;-48
2021/07/08 00:15:58;;;;;;;4.22;1.25;;;;;;;;;;5033141;28;20459;-48
2021/07/08 00:18:25;;;;;;;2.42;1.20;;;;;;;;;;5034078;28;20190;-48
2021/07/08 00:20:51;;;;;;;1.95;1.30;;;;;;;;;;5034547;28;20282;-48
2021/07/08 00:23:19;;;;;;;1.63;1.50;;;;;;;;;;5031178;28;20250;-48
2021/07/08 00:25:45;;;;;;;1.15;1.10;;;;;;;;;;5013555;28;20176;-48
2021/07/08 00:28:12;;;;;;;1.20;1.10;;;;;;;;;;5021144;28;20163;-48
2021/07/08 00:30:39;;;;;;;3.25;1.40;;;;;;;;;;5033862;28;20184;-48
2021/07/08 00:33:05;;;;;;;2.72;1.33;;;;;;;;;;5032494;28;20183;-48
2021/07/08 00:35:31;;;;;;;2.28;1.15;;;;;;;;;;5037241;28;20210;-48
2021/07/08 00:37:57;;;;;;;2.15;1.20;;;;;;;;;;5036858;28;20175;-48
2021/07/08 00:40:23;;;;;;;2.60;1.20;;;;;;;;;;5018750;28;20174;-48
2021/07/08 00:42:50;;;;;;;1.33;1.20;;;;;;;;;;5018650;28;20172;-48
2021/07/08 00:45:17;;;;;;;0.85;0.85;;;;;;;;;;5036237;28;20501;-48
2021/07/08 00:47:43;;;;;;;2.72;1.45;;;;;;;;;;5036787;28;20319;-48
2021/07/08 00:50:10;;;;;;;1.48;1.25;;;;;;;;;;5038259;28;20286;-48
2021/07/08 00:52:36;;;;;;;3.95;1.40;;;;;;;;;;5038280;28;20190;-48
2021/07/08 00:55:03;;;;;;;1.30;1.20;;;;;;;;;;5038201;28;20511;-48
2021/07/08 00:57:29;;;;;;;1.52;1.10;;;;;;;;;;5037183;28;20234;-48
2021/07/08 00:59:55;;;;;;;1.38;1.17;;;;;;;;;;5037398;28;20854;-48
2021/07/08 01:02:21;;;;;;;3.05;1.27;;;;;;;;;;5037595;28;20575;-48
2021/07/08 01:04:49;;;;;;;3.10;1.10;;;;;;;;;;5036414;28;20449;-48
2021/07/08 01:07:23;;;;;;;3.58;1.50;;;;;;;;;;5028197;28;20183;-48
2021/07/08 01:09:50;;;;;;;2.10;1.10;;;;;;;;;;5037698;28;20172;-48
2021/07/08 01:12:16;;;;;;;2.75;1.23;;;;;;;;;;5037550;28;20254;-48
2021/07/08 01:14:42;;;;;;;2.58;1.35;;;;;;;;;;5037676;28;20261;-48
2021/07/08 01:17:09;;;;;;;2.72;1.30;;;;;;;;;;5037019;28;20717;-48
2021/07/08 01:19:36;;;;;;;5.97;1.48;;;;;;;;;;5035902;28;20176;-48
2021/07/08 01:22:03;;;;;;;1.80;1.25;;;;;;;;;;5037685;28;20254;-48
2021/07/08 01:24:29;;;;;;;5.07;1.30;;;;;;;;;;5032634;28;20176;-48
2021/07/08 01:26:55;;;;;;;1.58;1.20;;;;;;;;;;5037137;28;20172;-48
2021/07/08 01:29:22;;;;;;;3.45;1.48;;;;;;;;;;5019367;28;20207;-48
2021/07/08 01:31:48;;;;;;;4.45;1.20;;;;;;;;;;5018361;28;20444;-48
2021/07/08 01:34:14;;;;;;;3.67;1.40;;;;;;;;;;5037404;28;20186;-48
2021/07/08 01:36:40;;;;;;;1.38;1.27;;;;;;;;;;5036493;28;20245;-48
2021/07/08 01:39:06;;;;;;;1.92;1.20;;;;;;;;;;5036870;28;20241;-48
2021/07/08 01:41:32;;;;;;;1.25;1.05;;;;;;;;;;5036517;28;20497;-48
2021/07/08 01:44:00;;;;;;;1.77;1.00;;;;;;;;;;5037237;28;20254;-48
2021/07/08 01:46:26;;;;;;;1.95;1.17;;;;;;;;;;5036768;28;20176;-48
2021/07/08 01:48:52;;;;;;;1.15;1.02;;;;;;;;;;5036157;28;20188;-48
2021/07/08 01:51:24;;;;;;;3.53;1.20;;;;;;;;;;5036934;28;20199;-48
2021/07/08 01:53:51;;;;;;;0.80;0.80;;;;;;;;;;5037109;28;20200;-48
2021/07/08 01:56:17;;;;;;;2.63;1.38;;;;;;;;;;5036602;28;20521;-48
2021/07/08 01:58:43;;;;;;;1.08;0.98;;;;;;;;;;5037017;28;20186;-48
2021/07/08 02:01:09;;;;;;;1.67;1.10;;;;;;;;;;5036514;28;20195;-48
2021/07/08 02:03:35;;;;;;;3.17;1.08;;;;;;;;;;5035906;28;20585;-48
2021/07/08 02:06:01;;;;;;;1.88;1.02;;;;;;;;;;5036130;28;20219;-48
2021/07/08 02:08:27;;;;;;;1.58;1.08;;;;;;;;;;5036526;28;20270;-48
2021/07/08 02:10:53;;;;;;;1.65;1.13;;;;;;;;;;5036773;28;20184;-48
2021/07/08 02:13:20;;;;;;;0.98;0.98;;;;;;;;;;5036774;28;20565;-48
2021/07/08 02:15:46;;;;;;;2.35;1.20;;;;;;;;;;5035173;28;20583;-48
2021/07/08 02:18:12;;;;;;;1.15;0.90;;;;;;;;;;5033329;28;20180;-48
2021/07/08 02:20:38;;;;;;;3.97;1.10;;;;;;;;;;5036221;28;20271;-48
2021/07/08 02:23:04;;;;;;;1.67;0.90;;;;;;;;;;5036187;28;20195;-48
2021/07/08 02:25:30;;;;;;;2.95;1.25;;;;;;;;;;5036213;28;20191;-48
2021/07/08 02:27:58;;;;;;;1.75;1.02;;;;;;;;;;5035836;28;20547;-48
2021/07/08 02:30:25;;;;;;;2.10;1.30;;;;;;;;;;5036410;28;20203;-48
2021/07/08 02:32:52;;;;;;;4.82;1.33;;;;;;;;;;5035712;28;20184;-48
2021/07/08 02:35:18;;;;;;;2.15;1.17;;;;;;;;;;5036155;28;20203;-48
2021/07/08 02:37:45;;;;;;;2.28;1.17;;;;;;;;;;5032667;28;20186;-48
2021/07/08 02:40:12;;;;;;;1.95;0.95;;;;;;;;;;5015576;28;20480;-48
2021/07/08 02:42:39;;;;;;;1.80;1.10;;;;;;;;;;5016535;28;20172;-48
2021/07/08 02:45:06;;;;;;;1.98;1.40;;;;;;;;;;5030642;28;20210;-48
2021/07/08 02:47:32;;;;;;;1.50;1.20;;;;;;;;;;5034857;28;20175;-48
2021/07/08 02:49:58;;;;;;;2.83;1.15;;;;;;;;;;5035579;28;20184;-48
2021/07/08 02:52:24;;;;;;;2.00;1.27;;;;;;;;;;5035350;28;20244;-48
2021/07/08 02:54:50;;;;;;;2.22;1.00;;;;;;;;;;5035918;28;20575;-48
2021/07/08 02:57:16;;;;;;;2.13;1.00;;;;;;;;;;5034220;28;20188;-48
2021/07/08 02:59:42;;;;;;;2.20;1.17;;;;;;;;;;5036084;28;20179;-48
2021/07/08 03:02:08;;;;;;;3.78;1.10;;;;;;;;;;5034979;28;20495;-48
2021/07/08 03:04:34;;;;;;;1.92;0.95;;;;;;;;;;5033613;28;20186;-48
2021/07/08 03:07:00;;;;;;;1.27;1.10;;;;;;;;;;5024968;28;20516;-48
2021/07/08 03:09:26;;;;;;;3.42;1.30;;;;;;;;;;5034627;28;20172;-48
2021/07/08 03:11:52;;;;;;;2.20;1.17;;;;;;;;;;5035686;28;20168;-48
2021/07/08 03:14:17;;;;;;;0.80;0.80;;;;;;;;;;5027455;28;20574;-48
2021/07/08 03:16:43;;;;;;;2.47;1.25;;;;;;;;;;5034440;28;20218;-48
2021/07/08 03:19:10;;;;;;;4.53;1.15;;;;;;;;;;5034613;28;20202;-48
2021/07/08 03:21:37;;;;;;;1.55;1.30;;;;;;;;;;5035567;28;20175;-48
2021/07/08 03:24:03;;;;;;;2.00;1.30;;;;;;;;;;5028313;28;20223;-48
2021/07/08 03:26:29;;;;;;;3.40;1.40;;;;;;;;;;5034471;28;20605;-48
2021/07/08 03:28:55;;;;;;;5.25;1.35;;;;;;;;;;5024793;28;20171;-48
2021/07/08 03:31:22;;;;;;;3.90;1.50;;;;;;;;;;5033850;28;20450;-48
2021/07/08 03:33:48;;;;;;;6.25;1.50;;;;;;;;;;5034472;28;20246;-48
2021/07/08 03:36:14;;;;;;;3.08;1.35;;;;;;;;;;5034615;28;20209;-48
2021/07/08 03:38:40;;;;;;;2.30;1.10;;;;;;;;;;5034476;28;20344;-48
2021/07/08 03:41:06;;;;;;;2.67;1.20;;;;;;;;;;5035165;28;20172;-48
2021/07/08 03:43:32;;;;;;;1.80;1.30;;;;;;;;;;5035077;28;20178;-48
2021/07/08 03:45:58;;;;;;;2.10;1.52;;;;;;;;;;5034776;28;20190;-48
2021/07/08 03:48:24;;;;;;;2.42;0.90;;;;;;;;;;5033986;28;20179;-48
2021/07/08 03:50:50;;;;;;;8.75;1.15;;;;;;;;;;5034409;28;20207;-48
2021/07/08 03:53:16;;;;;;;2.60;1.33;;;;;;;;;;5034809;28;20270;-48
2021/07/08 03:55:42;;;;;;;5.00;1.42;;;;;;;;;;5034604;28;20291;-48
2021/07/08 03:58:08;;;;;;;3.05;1.27;;;;;;;;;;5034271;28;20199;-48
2021/07/08 04:00:38;;;;;;;1.58;1.42;;;;;;;;;;5034399;28;20230;-48
2021/07/08 04:03:08;;;;;;;5.75;1.70;;;;;;;;;;5029948;28;20508;-48
2021/07/08 04:05:35;;;;;;;6.78;1.92;;;;;;;;;;5033252;28;20451;-48
2021/07/08 04:08:01;;;;;;;5.70;2.10;;;;;;;;;;5034017;28;20705;-48
2021/07/08 04:10:28;;;;;;;13.73;2.50;;;;;;;;;;5034052;28;20336;-48
2021/07/08 04:12:54;;;;;;;6.10;2.20;;;;;;;;;;5034235;28;20203;-47
2021/07/08 04:15:20;;;;;;;6.35;2.10;;;;;;;;;;5033900;28;20195;-47
2021/07/08 04:17:46;;;;;;;11.60;2.28;;;;;;;;;;5031895;28;20176;-47
2021/07/08 04:20:14;;;;;;;5.97;2.50;;;;;;;;;;5034208;28;20436;-47
2021/07/08 04:22:40;;;;;;;20.40;6.10;;;;;;;;;;5033737;28;20443;-47
2021/07/08 04:25:07;;;;;;;30.17;8.00;;;;;;;;;;5033429;28;20227;-47
2021/07/08 04:27:33;;;;;;;22.10;5.47;;;;;;;;;;5033093;28;20451;-47
2021/07/08 04:29:59;;;;;;;17.70;5.88;;;;;;;;;;5033675;28;20237;-47
2021/07/08 04:32:25;;;;;;;22.35;6.25;;;;;;;;;;5032999;28;20474;-48
2021/07/08 04:34:51;;;;;;;21.88;7.28;;;;;;;;;;5033679;28;20598;-48
2021/07/08 04:37:17;;;;;;;24.95;6.47;;;;;;;;;;5033724;28;20206;-48
2021/07/08 04:39:44;;;;;;;22.63;7.10;;;;;;;;;;5034276;28;20438;-48
2021/07/08 04:42:10;;;;;;;25.65;7.40;;;;;;;;;;5034012;28;20195;-48
2021/07/08 04:44:37;;;;;;;21.10;6.90;;;;;;;;;;5033301;28;20172;-48
2021/07/08 04:47:03;;;;;;;26.85;6.50;;;;;;;;;;5033646;28;20168;-48
2021/07/08 04:49:29;;;;;;;19.08;6.93;;;;;;;;;;5033783;28;20195;-48
2021/07/08 04:51:55;;;;;;;17.65;6.57;;;;;;;;;;5033483;28;20192;-48
2021/07/08 04:54:21;;;;;;;25.65;6.53;;;;;;;;;;5019382;28;20180;-48
2021/07/08 04:56:47;;;;;;;21.30;6.70;;;;;;;;;;5031616;28;20337;-48
2021/07/08 04:59:13;;;;;;;22.02;6.43;;;;;;;;;;5030220;28;20168;-48
2021/07/08 05:01:39;;;;;;;19.20;5.70;;;;;;;;;;5032618;28;20415;-48
2021/07/08 05:04:05;;;;;;;16.73;6.25;;;;;;;;;;5033435;28;20187;-48
2021/07/08 05:06:31;;;;;;;16.10;5.57;;;;;;;;;;5029837;28;20181;-48
2021/07/08 05:08:57;;;;;;;21.30;5.90;;;;;;;;;;5012993;28;20243;-48
2021/07/08 05:11:23;;;;;;;25.85;7.45;;;;;;;;;;5024070;28;20191;-48
2021/07/08 05:13:49;;;;;;;19.00;5.55;;;;;;;;;;5018970;28;20296;-48
2021/07/08 05:16:15;;;;;;;13.15;3.85;;;;;;;;;;5012778;28;20261;-48
2021/07/08 05:18:41;;;;;;;12.20;4.35;;;;;;;;;;5013233;28;20184;-47
2021/07/08 05:21:07;;;;;;;10.48;3.90;;;;;;;;;;5025707;28;20222;-47
2021/07/08 05:23:34;;;;;;;8.65;3.85;;;;;;;;;;5031377;28;20197;-48
2021/07/08 05:26:00;;;;;;;10.73;4.25;;;;;;;;;;5016465;28;20185;-48
2021/07/08 05:28:26;;;;;;;9.40;3.83;;;;;;;;;;5016891;28;20176;-48
2021/07/08 05:30:52;;;;;;;7.82;3.40;;;;;;;;;;5017847;28;20324;-48
2021/07/08 05:33:18;;;;;;;11.00;3.70;;;;;;;;;;5017796;28;20544;-47
2021/07/08 05:35:44;;;;;;;10.98;3.70;;;;;;;;;;5037298;28;20196;-47
2021/07/08 05:38:10;;;;;;;8.63;3.53;;;;;;;;;;5037233;28;20191;-47
2021/07/08 05:40:36;;;;;;;10.95;4.07;;;;;;;;;;5037521;28;20196;-48
2021/07/08 05:43:02;;;;;;;9.52;3.63;;;;;;;;;;5037185;28;20251;-48
2021/07/08 05:45:28;;;;;;;10.65;3.42;;;;;;;;;;5037397;28;20547;-48
2021/07/08 05:47:54;;;;;;;8.70;3.50;;;;;;;;;;5026933;28;20199;-48
2021/07/08 05:50:20;;;;;;;11.30;3.53;;;;;;;;;;5017746;28;20536;-48
2021/07/08 05:52:47;;;;;;;7.57;3.00;;;;;;;;;;5017452;28;20254;-48
2021/07/08 05:55:13;;;;;;;8.73;3.13;;;;;;;;;;5017142;28;20196;-48
2021/07/08 05:57:46;;;;;;;6.20;2.60;;;;;;;;;;5016634;28;20196;-48
2021/07/08 06:00:13;;;;;;;5.30;2.70;;;;;;;;;;5019511;28;20198;-48
2021/07/08 06:02:39;;;;;;;7.13;2.60;;;;;;;;;;5017030;28;20248;-48
2021/07/08 06:05:05;;;;;;;4.18;2.50;;;;;;;;;;5025195;28;20218;-48
2021/07/08 06:07:31;;;;;;;5.63;2.90;;;;;;;;;;5036405;28;20262;-48
2021/07/08 06:09:57;;;;;;;5.88;2.47;;;;;;;;;;5024706;28;20259;-48
2021/07/08 06:12:23;;;;;;;3.40;2.40;;;;;;;;;;5034033;28;20597;-48
2021/07/08 06:14:50;;;;;;;6.25;2.75;;;;;;;;;;5039127;28;20402;-48
2021/07/08 06:17:16;;;;;;;4.75;2.42;;;;;;;;;;5055885;28;20176;-48
2021/07/08 06:19:42;;;;;;;6.07;2.33;;;;;;;;;;5048395;28;20203;-48
2021/07/08 06:22:08;;;;;;;5.25;2.20;;;;;;;;;;5033747;28;20195;-48
2021/07/08 06:24:34;;;;;;;5.95;2.42;;;;;;;;;;5033654;28;20204;-48
2021/07/08 06:27:01;;;;;;;6.55;2.60;;;;;;;;;;5026303;28;20176;-48
2021/07/08 06:29:27;;;;;;;3.05;2.30;;;;;;;;;;5030261;28;20212;-48
2021/07/08 06:31:53;;;;;;;5.55;2.92;;;;;;;;;;5030264;28;20187;-48
2021/07/08 06:34:19;;;;;;;4.47;2.65;;;;;;;;;;5033765;28;20176;-48
2021/07/08 06:36:46;;;;;;;6.45;2.53;;;;;;;;;;5034157;28;20239;-48
2021/07/08 06:39:12;;;;;;;5.60;2.58;;;;;;;;;;5017370;28;20172;-48
2021/07/08 06:41:38;;;;;;;5.53;2.20;;;;;;;;;;5034376;28;20172;-48
2021/07/08 06:44:04;;;;;;;5.60;2.33;;;;;;;;;;5034434;28;20237;-48
2021/07/08 06:46:31;;;;;;;5.57;2.47;;;;;;;;;;5033977;28;20172;-48
2021/07/08 06:48:57;;;;;;;5.78;2.58;;;;;;;;;;5034361;28;20172;-48
2021/07/08 06:51:23;;;;;;;3.20;2.30;;;;;;;;;;5023768;28;20203;-48
2021/07/08 06:53:50;;;;;;;6.00;2.70;;;;;;;;;;5035475;28;20174;-48
2021/07/08 06:56:17;;;;;;;4.32;2.20;;;;;;;;;;5035553;28;20206;-48
2021/07/08 06:58:43;;;;;;;3.63;2.00;;;;;;;;;;5035709;28;20200;-48
2021/07/08 07:01:09;;;;;;;7.07;2.53;;;;;;;;;;5035557;28;20190;-48
2021/07/08 07:03:36;;;;;;;2.60;1.98;;;;;;;;;;5028329;28;20264;-48
2021/07/08 07:06:02;;;;;;;3.83;2.00;;;;;;;;;;5032583;28;20202;-48
2021/07/08 07:08:28;;;;;;;4.03;2.20;;;;;;;;;;5035156;28;20564;-48
2021/07/08 07:10:54;;;;;;;3.97;2.33;;;;;;;;;;5035422;28;20176;-48
2021/07/08 07:13:20;;;;;;;2.60;1.73;;;;;;;;;;5035567;28;20232;-48
2021/07/08 07:15:46;;;;;;;3.05;2.53;;;;;;;;;;5034658;28;20218;-48
2021/07/08 07:18:12;;;;;;;5.50;2.85;;;;;;;;;;5035063;28;20385;-48
2021/07/08 07:20:38;;;;;;;4.00;2.50;;;;;;;;;;5034540;28;20183;-48
2021/07/08 07:23:05;;;;;;;3.30;2.42;;;;;;;;;;5034736;28;20298;-48
2021/07/08 07:25:32;;;;;;;3.97;2.50;;;;;;;;;;5035203;28;20203;-48
2021/07/08 07:27:58;;;;;;;5.70;2.20;;;;;;;;;;5034476;28;20560;-48
2021/07/08 07:30:25;;;;;;;3.08;2.13;;;;;;;;;;5035124;28;20184;-48
2021/07/08 07:32:52;;;;;;;2.47;2.28;;;;;;;;;;5035016;28;20180;-48
2021/07/08 07:35:19;;;;;;;3.17;2.10;;;;;;;;;;5033522;28;20210;-48
2021/07/08 07:37:45;;;;;;;2.47;1.80;;;;;;;;;;5034462;28;20241;-48
2021/07/08 07:40:12;;;;;;;5.40;2.15;;;;;;;;;;5034855;28;20168;-48
2021/07/08 07:42:38;;;;;;;2.88;1.80;;;;;;;;;;5034903;28;20539;-48
2021/07/08 07:45:06;;;;;;;1.77;1.45;;;;;;;;;;5034752;28;20555;-48
2021/07/08 07:47:32;;;;;;;3.20;2.08;;;;;;;;;;5034322;28;20206;-48
2021/07/08 07:49:59;;;;;;;3.15;1.85;;;;;;;;;;5034508;28;20637;-48
2021/07/08 07:52:25;;;;;;;2.67;1.98;;;;;;;;;;5025807;28;20192;-48
2021/07/08 07:54:51;;;;;;;2.47;1.92;;;;;;;;;;5021720;28;20183;-48
2021/07/08 07:57:18;;;;;;;1.80;1.70;;;;;;;;;;5034274;28;20524;-48
2021/07/08 07:59:43;;;;;;;2.20;1.70;;;;;;;;;;5034712;28;20175;-48
2021/07/08 08:02:13;;;;;;;1.90;1.70;;;;;;;;;;5034478;28;20476;-48
2021/07/08 08:04:45;;;;;;;2.10;1.83;;;;;;;;;;5033788;28;20179;-48
2021/07/08 08:09:56;;;;;;;4.50;1.90;;;;;;;;;;5032138;28;20593;-47
2021/07/08 08:12:23;;;;;;;3.47;1.80;;;;;;;;;;5034010;28;20183;-47
2021/07/08 08:14:50;;;;;;;4.18;1.70;;;;;;;;;;5034366;28;20563;-48
2021/07/08 08:17:16;;;;;;;2.83;1.92;;;;;;;;;;5032913;28;20211;-48
2021/07/08 08:19:42;;;;;;;3.90;2.15;;;;;;;;;;5034200;28;20194;-48
2021/07/08 08:22:11;;;;;;;2.58;1.83;;;;;;;;;;5034324;28;20188;-48
2021/07/08 08:24:37;;;;;;;3.63;2.10;;;;;;;;;;5021823;28;20193;-48
2021/07/08 08:27:04;;;;;;;4.53;1.77;;;;;;;;;;5032784;28;20211;-48
2021/07/08 08:29:30;;;;;;;4.30;2.15;;;;;;;;;;5032409;28;20439;-48
2021/07/08 08:31:56;;;;;;;2.13;1.92;;;;;;;;;;5032471;28;20233;-48
2021/07/08 08:34:22;;;;;;;2.83;2.22;;;;;;;;;;5033827;28;20254;-48
2021/07/08 08:36:48;;;;;;;1.60;1.50;;;;;;;;;;5033797;28;20290;-48
2021/07/08 08:39:14;;;;;;;1.85;1.75;;;;;;;;;;5032636;28;20255;-48
2021/07/08 08:41:40;;;;;;;2.13;1.52;;;;;;;;;;5034093;28;20188;-48
2021/07/08 08:44:06;;;;;;;3.10;2.00;;;;;;;;;;5034249;28;20225;-48
2021/07/08 08:46:36;;;;;;;4.70;2.50;;;;;;;;;;5033868;28;20250;-48
2021/07/08 08:49:03;;;;;;;5.28;2.25;;;;;;;;;;5034374;28;20172;-48
2021/07/08 08:51:29;;;;;;;2.15;1.95;;;;;;;;;;5034280;28;20539;-48
2021/07/08 08:53:55;;;;;;;3.22;2.50;;;;;;;;;;5021779;28;20183;-48
2021/07/08 08:56:21;;;;;;;2.78;2.45;;;;;;;;;;5032501;28;20481;-48
2021/07/08 08:58:48;;;;;;;3.20;2.30;;;;;;;;;;5018136;28;20548;-48
2021/07/08 09:01:17;;;;;;;4.15;2.00;;;;;;;;;;5018518;28;20211;-48
2021/07/08 09:03:45;;;;;;;2.45;1.80;;;;;;;;;;5018515;28;20276;-47
2021/07/08 09:06:11;;;;;;;1.90;1.80;;;;;;;;;;5020288;28;20431;-47
2021/07/08 09:08:44;;;;;;;2.05;1.88;;;;;;;;;;5037945;28;20168;-47
2021/07/08 09:11:13;;;;;;;4.47;2.22;;;;;;;;;;5037918;28;20164;-48
2021/07/08 09:13:42;;;;;;;2.28;2.17;;;;;;;;;;5037990;28;20168;-48
2021/07/08 09:16:28;;;;;;;3.40;1.80;;;;;;;;;;5024391;28;20216;-48
2021/07/08 09:19:06;;;;;;;1.92;1.83;;;;;;;;;;5018141;28;20407;-48
2021/07/08 09:21:33;;;;;;;1.92;1.75;;;;;;;;;;5018049;28;20165;-47
2021/07/08 09:24:02;;;;;;;1.80;1.70;;;;;;;;;;5027021;28;20183;-47
2021/07/08 09:26:28;;;;;;;3.60;1.73;;;;;;;;;;5037317;28;20192;-47
2021/07/08 09:29:08;;;;;;;2.28;2.05;;;;;;;;;;5032204;28;20510;-48
2021/07/08 09:31:35;;;;;;;2.30;1.70;;;;;;;;;;5023769;28;20435;-48
2021/07/08 09:34:18;;;;;;;5.35;1.90;;;;;;;;;;5041343;28;20574;-48
2021/07/08 09:36:45;;;;;;;2.33;1.80;;;;;;;;;;5034264;28;20223;-48
2021/07/08 09:39:12;;;;;;;2.95;1.70;;;;;;;;;;5046390;28;20271;-48
2021/07/08 09:41:48;;;;;;;2.25;1.70;;;;;;;;;;5033842;28;20172;-48
2021/07/08 09:44:25;;;;;;;2.17;1.45;;;;;;;;;;5038594;28;20254;-48
2021/07/08 09:46:51;;;;;;;1.83;1.67;;;;;;;;;;5029962;28;20477;-47
2021/07/08 09:49:17;;;;;;;2.85;1.50;;;;;;;;;;5037503;28;20607;-47
2021/07/08 09:51:45;;;;;;;1.50;1.40;;;;;;;;;;5040268;28;20279;-47
2021/07/08 09:54:20;;;;;;;1.50;1.40;;;;;;;;;;5046669;28;20172;-47
2021/07/08 09:56:53;;;;;;;2.05;1.45;;;;;;;;;;5035967;28;20207;-48
2021/07/08 09:59:20;;;;;;;4.38;1.48;;;;;;;;;;5036764;28;20200;-48
2021/07/08 10:01:55;;;;;;;2.17;1.85;;;;;;;;;;5037971;28;20175;-48
2021/07/08 10:04:21;;;;;;;2.95;1.92;;;;;;;;;;5036136;28;20218;-48
2021/07/08 10:06:47;;;;;;;2.40;1.70;;;;;;;;;;5034960;28;20188;-48
2021/07/08 10:09:17;;;;;;;1.95;1.55;;;;;;;;;;5037487;28;20211;-48
2021/07/08 10:11:44;;;;;;;2.08;1.80;;;;;;;;;;5041370;28;20194;-48
2021/07/08 10:14:11;;;;;;;2.78;1.52;;;;;;;;;;5039555;28;20460;-48
2021/07/08 10:16:37;;;;;;;2.15;1.38;;;;;;;;;;5036254;28;20514;-48
2021/07/08 10:19:05;;;;;;;1.40;1.30;;;;;;;;;;5035578;28;20198;-48
2021/07/08 10:21:31;;;;;;;1.55;1.30;;;;;;;;;;5036977;28;20241;-48
2021/07/08 10:23:58;;;;;;;1.50;1.40;;;;;;;;;;5035187;28;20172;-48
2021/07/08 10:26:25;;;;;;;2.53;1.30;;;;;;;;;;5021352;28;20202;-48
2021/07/08 10:28:51;;;;;;;1.30;1.20;;;;;;;;;;5036493;28;20551;-48
2021/07/08 10:31:20;;;;;;;1.40;1.30;;;;;;;;;;5035444;28;20267;-48
2021/07/08 10:34:05;;;;;;;3.40;1.55;;;;;;;;;;5036164;28;20421;-48
2021/07/08 10:36:32;;;;;;;2.15;1.35;;;;;;;;;;5036130;28;20207;-48
2021/07/08 10:39:02;;;;;;;2.05;1.60;;;;;;;;;;5020862;28;20173;-48
2021/07/08 10:41:27;;;;;;;1.75;1.65;;;;;;;;;;5036613;28;20171;-47
2021/07/08 10:43:53;;;;;;;2.25;1.42;;;;;;;;;;5036312;28;20490;-47
2021/07/08 10:46:19;;;;;;;1.50;1.40;;;;;;;;;;5032759;28;20438;-47
2021/07/08 10:48:46;;;;;;;3.15;1.63;;;;;;;;;;5031938;28;20628;-47
2021/07/08 10:51:16;;;;;;;1.60;1.42;;;;;;;;;;5035540;28;20195;-47
2021/07/08 10:53:45;;;;;;;2.45;1.60;;;;;;;;;;5036320;28;20180;-47
2021/07/08 10:56:16;;;;;;;1.50;1.40;;;;;;;;;;5035448;28;20200;-47
2021/07/08 10:58:51;;;;;;;1.33;1.20;;;;;;;;;;5033961;28;20556;-47
2021/07/08 11:01:27;;;;;;;1.67;1.58;;;;;;;;;;5025248;28;20547;-47
2021/07/08 11:03:53;;;;;;;2.25;1.50;;;;;;;;;;5025048;28;20196;-47
2021/07/08 11:06:21;;;;;;;1.63;1.20;;;;;;;;;;5035376;28;20218;-47
2021/07/08 11:08:51;;;;;;;3.35;1.67;;;;;;;;;;5035451;28;20191;-47
2021/07/08 11:11:23;;;;;;;2.58;1.40;;;;;;;;;;5033325;28;20230;-47
2021/07/08 11:13:49;;;;;;;2.08;1.50;;;;;;;;;;5026447;28;20176;-47
2021/07/08 11:16:34;;;;;;;1.73;1.20;;;;;;;;;;5016421;28;20216;-47
2021/07/08 11:19:01;;;;;;;2.67;1.50;;;;;;;;;;5027816;28;20180;-47
2021/07/08 11:21:46;;;;;;;1.40;1.30;;;;;;;;;;5035421;28;20263;-47
2021/07/08 11:24:24;;;;;;;1.40;1.30;;;;;;;;;;5032020;28;20177;-47
2021/07/08 11:26:51;;;;;;;1.60;1.50;;;;;;;;;;5015415;28;20212;-47
2021/07/08 11:29:33;;;;;;;3.50;1.55;;;;;;;;;;5015555;28;20165;-47
2021/07/08 11:31:59;;;;;;;2.17;1.50;;;;;;;;;;5020741;28;20449;-47
2021/07/08 11:34:26;;;;;;;1.40;1.30;;;;;;;;;;5031482;28;20180;-47
2021/07/08 11:36:54;;;;;;;1.58;1.40;;;;;;;;;;5028314;28;20598;-47
2021/07/08 11:39:23;;;;;;;1.77;1.63;;;;;;;;;;5015048;28;20169;-47
2021/07/08 11:41:49;;;;;;;2.50;1.33;;;;;;;;;;5019199;28;20290;-47
2021/07/08 11:44:17;;;;;;;2.40;1.65;;;;;;;;;;5035045;28;20184;-47
2021/07/08 11:46:43;;;;;;;1.25;1.15;;;;;;;;;;5033845;28;20179;-47
2021/07/08 11:49:09;;;;;;;1.40;1.23;;;;;;;;;;5026342;28;20263;-47
2021/07/08 11:51:35;;;;;;;2.08;1.50;;;;;;;;;;5034795;28;20202;-47
2021/07/08 11:54:07;;;;;;;1.40;1.23;;;;;;;;;;5034896;28;20550;-47
2021/07/08 11:56:33;;;;;;;1.45;1.30;;;;;;;;;;5022855;28;20291;-47
2021/07/08 11:59:06;;;;;;;2.05;1.40;;;;;;;;;;5028996;28;20192;-48
2021/07/08 12:01:32;;;;;;;1.38;1.27;;;;;;;;;;5033841;28;20191;-47
2021/07/08 12:03:59;;;;;;;2.08;1.40;;;;;;;;;;5032644;28;20180;-47
2021/07/08 12:06:30;;;;;;;2.42;1.20;;;;;;;;;;5029837;28;20225;-47
2021/07/08 12:08:58;;;;;;;1.65;1.30;;;;;;;;;;5031730;28;20171;-47
2021/07/08 12:11:33;;;;;;;1.52;1.38;;;;;;;;;;5013187;28;20165;-47
2021/07/08 12:14:00;;;;;;;2.63;1.25;;;;;;;;;;5013543;28;20203;-47
2021/07/08 12:16:31;;;;;;;3.33;1.60;;;;;;;;;;5012926;28;20188;-47
2021/07/08 12:18:57;;;;;;;2.72;1.40;;;;;;;;;;5014137;28;20686;-47
2021/07/08 12:21:23;;;;;;;1.52;1.40;;;;;;;;;;5014816;28;20180;-47
2021/07/08 12:23:50;;;;;;;2.28;1.52;;;;;;;;;;5022635;28;20262;-47
2021/07/08 12:26:27;;;;;;;2.42;1.27;;;;;;;;;;5026251;28;20200;-47
2021/07/08 12:29:11;;;;;;;1.92;1.42;;;;;;;;;;5014747;28;20211;-47
2021/07/08 12:31:51;;;;;;;1.73;1.50;;;;;;;;;;5014051;28;20176;-47
2021/07/08 12:34:18;;;;;;;1.40;1.30;;;;;;;;;;5015058;28;20435;-47
2021/07/08 12:36:44;;;;;;;1.83;1.27;;;;;;;;;;5022223;28;20203;-47
2021/07/08 12:39:10;;;;;;;3.95;1.60;;;;;;;;;;5034343;28;20168;-47
2021/07/08 12:41:36;;;;;;;3.50;1.25;;;;;;;;;;5034191;28;20428;-47
2021/07/08 12:44:10;;;;;;;1.75;1.65;;;;;;;;;;5033096;28;20781;-47
2021/07/08 12:46:36;;;;;;;1.40;1.30;;;;;;;;;;5019053;28;20171;-47
2021/07/08 12:49:02;;;;;;;2.47;1.67;;;;;;;;;;5033892;28;20714;-47
2021/07/08 12:51:28;;;;;;;1.20;1.20;;;;;;;;;;5029211;28;20195;-47
2021/07/08 12:53:54;;;;;;;1.60;1.50;;;;;;;;;;5032668;28;20175;-47
2021/07/08 12:56:23;;;;;;;1.60;1.50;;;;;;;;;;5032585;28;20204;-47
2021/07/08 12:58:58;;;;;;;3.30;1.30;;;;;;;;;;5033517;28;20230;-47
2021/07/08 13:01:29;;;;;;;2.20;1.33;;;;;;;;;;5033890;28;20578;-48
2021/07/08 13:03:56;;;;;;;1.73;1.20;;;;;;;;;;5031638;28;20218;-48
2021/07/08 13:06:29;;;;;;;3.75;1.50;;;;;;;;;;5032979;28;20187;-48
2021/07/08 13:09:06;;;;;;;2.00;1.50;;;;;;;;;;5033687;28;20431;-48
2021/07/08 13:11:32;;;;;;;2.67;1.33;;;;;;;;;;5034229;28;20547;-48
2021/07/08 13:14:16;;;;;;;3.75;1.30;;;;;;;;;;5033106;28;20224;-48
2021/07/08 13:16:41;;;;;;;4.20;1.40;;;;;;;;;;5029062;28;20199;-48
2021/07/08 13:19:14;;;;;;;2.63;1.23;;;;;;;;;;5030826;28;20176;-48
2021/07/08 13:21:42;;;;;;;1.27;1.10;;;;;;;;;;5033450;28;20179;-48
2021/07/08 13:24:20;;;;;;;2.80;1.10;;;;;;;;;;5029238;28;20161;-48
2021/07/08 13:26:47;;;;;;;3.00;1.30;;;;;;;;;;5030227;28;20191;-48
2021/07/08 13:29:13;;;;;;;2.35;1.20;;;;;;;;;;5033659;28;20195;-48
2021/07/08 13:31:39;;;;;;;6.90;1.40;;;;;;;;;;5033226;28;20172;-48
2021/07/08 13:34:05;;;;;;;6.85;1.33;;;;;;;;;;5033365;28;20195;-48
2021/07/08 13:36:33;;;;;;;1.85;1.35;;;;;;;;;;5030633;28;20204;-48
2021/07/08 13:39:06;;;;;;;2.28;1.50;;;;;;;;;;5032453;28;20262;-48
2021/07/08 13:41:36;;;;;;;1.63;1.40;;;;;;;;;;5033346;28;20176;-48
2021/07/08 13:44:12;;;;;;;7.43;1.50;;;;;;;;;;5035039;28;20207;-48
2021/07/08 13:46:39;;;;;;;3.17;1.40;;;;;;;;;;5034697;28;20263;-48
2021/07/08 13:49:20;;;;;;;7.65;1.65;;;;;;;;;;5035407;28;20279;-48
2021/07/08 13:51:46;;;;;;;7.18;2.35;;;;;;;;;;5035431;28;20300;-48
2021/07/08 13:54:13;;;;;;;5.60;1.40;;;;;;;;;;5035924;28;20195;-48
2021/07/08 13:56:39;;;;;;;2.90;1.58;;;;;;;;;;5028314;28;20630;-48
2021/07/08 13:59:05;;;;;;;3.00;1.40;;;;;;;;;;5027584;28;20423;-48
2021/07/08 14:01:32;;;;;;;3.45;1.20;;;;;;;;;;5036870;28;20498;-48
2021/07/08 14:03:58;;;;;;;13.90;1.60;;;;;;;;;;5036357;28;20500;-48
2021/07/08 14:06:26;;;;;;;3.40;1.42;;;;;;;;;;5035929;28;20240;-48
2021/07/08 14:08:52;;;;;;;3.22;1.40;;;;;;;;;;5036662;28;20180;-48
2021/07/08 14:11:20;;;;;;;6.25;1.60;;;;;;;;;;5025513;28;20184;-48
2021/07/08 14:13:46;;;;;;;1.80;1.33;;;;;;;;;;5036606;28;20189;-48
2021/07/08 14:16:13;;;;;;;3.90;1.40;;;;;;;;;;5034866;28;20735;-48
2021/07/08 14:18:39;;;;;;;3.22;1.40;;;;;;;;;;5036339;28;20176;-48
2021/07/08 14:21:05;;;;;;;3.08;1.45;;;;;;;;;;5036317;28;20187;-48
2021/07/08 14:23:31;;;;;;;1.92;1.13;;;;;;;;;;5036013;28;20190;-48
2021/07/08 14:25:58;;;;;;;3.20;1.35;;;;;;;;;;5029238;28;20513;-48
2021/07/08 14:28:24;;;;;;;4.45;1.52;;;;;;;;;;5025626;28;20187;-48
2021/07/08 14:30:51;;;;;;;6.20;1.50;;;;;;;;;;5036100;28;20175;-48
2021/07/08 14:33:17;;;;;;;6.38;1.67;;;;;;;;;;5034863;28;20233;-48
2021/07/08 14:35:44;;;;;;;5.38;1.70;;;;;;;;;;5035481;28;20293;-48
2021/07/08 14:38:11;;;;;;;5.88;1.85;;;;;;;;;;5035800;28;20230;-48
2021/07/08 14:40:37;;;;;;;4.57;1.70;;;;;;;;;;5030464;28;20168;-48
2021/07/08 14:43:09;;;;;;;5.22;1.42;;;;;;;;;;5022465;28;20196;-48
2021/07/08 14:45:36;;;;;;;6.95;1.75;;;;;;;;;;5034125;28;20752;-48